createdAt,value
2019-03-28T00:00:28.376Z,1025.06
2019-03-28T00:01:28.720Z,1025.06
2019-03-28T00:02:29.059Z,1025.07
2019-03-28T00:03:29.683Z,1025.07
2019-03-28T00:04:29.831Z,1025.09
2019-03-28T00:05:30.041Z,1025.03
2019-03-28T00:06:30.392Z,1025.09
2019-03-28T00:07:30.727Z,1025.11
2019-03-28T00:08:31.088Z,1025.05
2019-03-28T00:09:31.432Z,1025.09
2019-03-28T00:10:31.741Z,1025.02
2019-03-28T00:11:32.086Z,1025.05
2019-03-28T00:12:32.469Z,1025.04
2019-03-28T00:13:32.734Z,1025.00
2019-03-28T00:14:33.096Z,1025.01
2019-03-28T00:15:33.415Z,1024.97
2019-03-28T00:16:33.755Z,1025.06
2019-03-28T00:17:34.101Z,1025.02
2019-03-28T00:18:34.447Z,1024.95
2019-03-28T00:19:34.770Z,1025.06
2019-03-28T00:20:35.391Z,1025.01
2019-03-28T00:21:35.514Z,1024.97
2019-03-28T00:22:35.795Z,1025.04
2019-03-28T00:23:36.285Z,1025.00
2019-03-28T00:24:36.466Z,1025.03
2019-03-28T00:25:36.792Z,1025.08
2019-03-28T00:26:37.132Z,1025.01
2019-03-28T00:27:37.487Z,1025.05
2019-03-28T00:28:37.836Z,1024.97
2019-03-28T00:29:38.248Z,1025.04
2019-03-28T00:30:38.480Z,1024.94
2019-03-28T00:31:38.812Z,1025.02
2019-03-28T00:32:39.165Z,1025.06
2019-03-28T00:33:39.508Z,1024.98
2019-03-28T00:34:39.827Z,1024.99
2019-03-28T00:35:40.168Z,1024.98
2019-03-28T00:36:40.501Z,1024.97
2019-03-28T00:37:40.950Z,1025.02
2019-03-28T00:38:41.458Z,1024.99
2019-03-28T00:39:41.526Z,1024.98
2019-03-28T00:40:41.833Z,1025.00
2019-03-28T00:41:42.171Z,1024.95
2019-03-28T00:42:42.526Z,1024.92
2019-03-28T00:43:42.876Z,1024.95
2019-03-28T00:44:43.198Z,1024.98
2019-03-28T00:45:44.487Z,1025.00
2019-03-28T00:46:43.837Z,1024.98
2019-03-28T00:47:44.192Z,1024.94
2019-03-28T00:48:44.519Z,1024.98
2019-03-28T00:49:44.849Z,1025.05
2019-03-28T00:50:45.164Z,1024.98
2019-03-28T00:51:45.507Z,1024.96
2019-03-28T00:52:45.878Z,1024.96
2019-03-28T00:53:46.246Z,1025.00
2019-03-28T00:54:46.555Z,1024.95
2019-03-28T00:55:46.865Z,1025.00
2019-03-28T00:56:47.694Z,1024.94
2019-03-28T00:57:47.577Z,1024.93
2019-03-28T00:58:47.935Z,1024.99
2019-03-28T00:59:48.233Z,1024.94
2019-03-28T01:00:48.586Z,1024.97
2019-03-28T01:01:48.931Z,1024.94
2019-03-28T01:02:49.381Z,1024.99
2019-03-28T01:03:49.888Z,1024.95
2019-03-28T01:04:49.942Z,1025.01
2019-03-28T01:05:50.297Z,1024.98
2019-03-28T01:06:50.601Z,1025.00
2019-03-28T01:07:50.970Z,1025.02
2019-03-28T01:08:51.310Z,1024.98
2019-03-28T01:09:51.619Z,1024.96
2019-03-28T01:10:52.084Z,1025.02
2019-03-28T01:11:52.297Z,1025.00
2019-03-28T01:12:53.098Z,1024.94
2019-03-28T01:13:53.005Z,1024.99
2019-03-28T01:14:53.320Z,1025.02
2019-03-28T01:15:53.673Z,1025.01
2019-03-28T01:16:53.980Z,1025.00
2019-03-28T01:17:55.126Z,1025.05
2019-03-28T01:18:54.765Z,1025.00
2019-03-28T01:19:55.224Z,1024.99
2019-03-28T01:20:55.350Z,1025.01
2019-03-28T01:21:55.665Z,1025.02
2019-03-28T01:22:56.273Z,1024.99
2019-03-28T01:23:56.369Z,1025.02
2019-03-28T01:24:57.792Z,1025.01
2019-03-28T01:25:57.024Z,1025.03
2019-03-28T01:26:58.760Z,1025.02
2019-03-28T01:27:57.672Z,1025.06
2019-03-28T01:28:58.011Z,1025.00
2019-03-28T01:29:58.344Z,1025.00
2019-03-28T01:30:58.700Z,1025.02
2019-03-28T01:31:59.026Z,1025.04
2019-03-28T01:32:59.366Z,1025.01
2019-03-28T01:33:59.723Z,1024.97
2019-03-28T01:35:00.053Z,1024.99
2019-03-28T01:36:00.451Z,1025.01
2019-03-28T01:37:00.702Z,1025.02
2019-03-28T01:38:01.064Z,1025.02
2019-03-28T01:39:01.495Z,1025.02
2019-03-28T01:40:01.710Z,1025.04
2019-03-28T01:41:02.064Z,1025.00
2019-03-28T01:42:02.383Z,1025.04
2019-03-28T01:43:02.741Z,1025.06
2019-03-28T01:44:03.181Z,1025.06
2019-03-28T01:45:03.404Z,1025.02
2019-03-28T01:46:03.754Z,1024.97
2019-03-28T01:47:04.077Z,1025.04
2019-03-28T01:48:04.437Z,1025.01
2019-03-28T01:49:04.774Z,1025.06
2019-03-28T01:50:05.081Z,1024.97
2019-03-28T01:51:06.129Z,1025.01
2019-03-28T01:52:05.930Z,1025.02
2019-03-28T01:53:06.090Z,1025.03
2019-03-28T01:54:06.462Z,1025.01
2019-03-28T01:55:06.753Z,1025.03
2019-03-28T01:56:07.124Z,1025.01
2019-03-28T01:57:11.104Z,1024.97
2019-03-28T01:58:07.775Z,1025.06
2019-03-28T01:59:08.161Z,1025.00
2019-03-28T02:00:08.544Z,1025.04
2019-03-28T02:01:08.786Z,1024.99
2019-03-28T02:02:09.126Z,1025.01
2019-03-28T02:03:09.465Z,1024.96
2019-03-28T02:04:09.828Z,1025.03
2019-03-28T02:05:10.146Z,1025.09
2019-03-28T02:06:10.510Z,1025.06
2019-03-28T02:07:10.817Z,1025.06
2019-03-28T02:08:11.201Z,1025.02
2019-03-28T02:09:11.865Z,1025.02
2019-03-28T02:10:11.842Z,1025.02
2019-03-28T02:11:12.192Z,1025.04
2019-03-28T02:12:12.497Z,1024.99
2019-03-28T02:13:12.851Z,1025.00
2019-03-28T02:14:13.232Z,1024.99
2019-03-28T02:15:13.522Z,1025.01
2019-03-28T02:16:13.893Z,1025.02
2019-03-28T02:17:14.300Z,1024.97
2019-03-28T02:18:14.532Z,1024.96
2019-03-28T02:19:14.902Z,1024.99
2019-03-28T02:20:15.201Z,1025.03
2019-03-28T02:21:15.558Z,1025.04
2019-03-28T02:22:15.855Z,1024.99
2019-03-28T02:23:16.209Z,1025.03
2019-03-28T02:24:16.575Z,1025.04
2019-03-28T02:25:17.300Z,1025.02
2019-03-28T02:26:17.202Z,1025.05
2019-03-28T02:27:23.869Z,1025.08
2019-03-28T02:28:18.899Z,1025.02
2019-03-28T02:29:18.292Z,1025.05
2019-03-28T02:30:18.576Z,1025.11
2019-03-28T02:31:18.931Z,1025.06
2019-03-28T02:32:19.241Z,1025.08
2019-03-28T02:33:19.641Z,1025.07
2019-03-28T02:34:19.979Z,1025.11
2019-03-28T02:35:20.247Z,1025.14
2019-03-28T02:36:20.597Z,1025.08
2019-03-28T02:37:20.920Z,1025.09
2019-03-28T02:38:21.233Z,1025.10
2019-03-28T02:39:21.709Z,1025.10
2019-03-28T02:40:21.931Z,1025.11
2019-03-28T02:41:22.337Z,1025.06
2019-03-28T02:42:22.592Z,1025.15
2019-03-28T02:43:22.936Z,1025.08
2019-03-28T02:44:23.318Z,1025.15
2019-03-28T02:45:23.708Z,1025.10
2019-03-28T02:46:23.989Z,1025.10
2019-03-28T02:47:24.284Z,1025.18
2019-03-28T02:48:24.626Z,1025.19
2019-03-28T02:49:25.280Z,1025.13
2019-03-28T02:50:25.366Z,1025.12
2019-03-28T02:51:25.644Z,1025.18
2019-03-28T02:52:25.962Z,1025.19
2019-03-28T02:53:26.300Z,1025.11
2019-03-28T02:54:26.656Z,1025.21
2019-03-28T02:55:26.969Z,1025.16
2019-03-28T02:56:27.311Z,1025.15
2019-03-28T02:57:40.106Z,1025.14
2019-03-28T02:58:29.108Z,1025.16
2019-03-28T02:59:28.772Z,1025.10
2019-03-28T03:00:28.669Z,1025.18
2019-03-28T03:01:30.286Z,1025.16
2019-03-28T03:02:29.370Z,1025.15
2019-03-28T03:03:29.702Z,1025.19
2019-03-28T03:04:30.062Z,1025.14
2019-03-28T03:05:30.374Z,1025.17
2019-03-28T03:06:30.815Z,1025.17
2019-03-28T03:07:31.054Z,1025.19
2019-03-28T03:08:31.416Z,1025.20
2019-03-28T03:09:31.750Z,1025.20
2019-03-28T03:10:32.060Z,1025.19
2019-03-28T03:11:32.393Z,1025.13
2019-03-28T03:12:32.750Z,1025.15
2019-03-28T03:13:33.084Z,1025.14
2019-03-28T03:14:33.473Z,1025.15
2019-03-28T03:15:33.758Z,1025.11
2019-03-28T03:16:34.063Z,1025.04
2019-03-28T03:17:34.419Z,1025.09
2019-03-28T03:18:34.745Z,1025.11
2019-03-28T03:19:35.107Z,1025.13
2019-03-28T03:20:35.459Z,1025.13
2019-03-28T03:21:35.994Z,1025.15
2019-03-28T03:22:36.144Z,1025.12
2019-03-28T03:23:36.501Z,1025.16
2019-03-28T03:24:36.790Z,1025.16
2019-03-28T03:25:37.414Z,1025.19
2019-03-28T03:26:37.450Z,1025.21
2019-03-28T03:27:37.782Z,1025.19
2019-03-28T03:28:38.116Z,1025.16
2019-03-28T03:29:38.476Z,1025.17
2019-03-28T03:30:38.823Z,1025.20
2019-03-28T03:31:39.228Z,1025.19
2019-03-28T03:32:39.486Z,1025.17
2019-03-28T03:33:40.024Z,1025.15
2019-03-28T03:34:40.175Z,1025.11
2019-03-28T03:35:40.509Z,1025.24
2019-03-28T03:36:40.836Z,1025.18
2019-03-28T03:37:41.164Z,1025.13
2019-03-28T03:38:41.492Z,1025.17
2019-03-28T03:39:41.997Z,1025.16
2019-03-28T03:40:42.209Z,1025.19
2019-03-28T03:41:42.505Z,1025.22
2019-03-28T03:42:42.848Z,1025.15
2019-03-28T03:43:43.168Z,1025.15
2019-03-28T03:44:43.536Z,1025.19
2019-03-28T03:45:44.039Z,1025.17
2019-03-28T03:46:44.199Z,1025.20
2019-03-28T03:47:45.710Z,1025.18
2019-03-28T03:48:44.827Z,1025.19
2019-03-28T03:49:45.211Z,1025.20
2019-03-28T03:50:45.545Z,1025.29
2019-03-28T03:51:46.514Z,1025.30
2019-03-28T03:52:46.218Z,1025.29
2019-03-28T03:53:46.528Z,1025.27
2019-03-28T03:54:46.872Z,1025.27
2019-03-28T03:55:47.259Z,1025.32
2019-03-28T03:56:47.603Z,1025.26
2019-03-28T03:57:47.940Z,1025.32
2019-03-28T03:58:48.260Z,1025.32
2019-03-28T03:59:48.583Z,1025.32
2019-03-28T04:00:48.917Z,1025.22
2019-03-28T04:01:49.281Z,1025.23
2019-03-28T04:02:49.625Z,1025.31
2019-03-28T04:03:49.974Z,1025.32
2019-03-28T04:04:50.350Z,1025.30
2019-03-28T04:05:50.634Z,1025.35
2019-03-28T04:06:50.982Z,1025.28
2019-03-28T04:07:51.326Z,1025.31
2019-03-28T04:08:51.643Z,1025.29
2019-03-28T04:09:51.981Z,1025.37
2019-03-28T04:10:52.319Z,1025.34
2019-03-28T04:11:52.681Z,1025.44
2019-03-28T04:12:53.187Z,1025.35
2019-03-28T04:13:53.352Z,1025.32
2019-03-28T04:14:53.690Z,1025.31
2019-03-28T04:15:54.039Z,1025.33
2019-03-28T04:16:55.571Z,1025.38
2019-03-28T04:17:54.733Z,1025.32
2019-03-28T04:18:55.049Z,1025.36
2019-03-28T04:19:55.386Z,1025.34
2019-03-28T04:20:55.775Z,1025.34
2019-03-28T04:21:56.235Z,1025.36
2019-03-28T04:22:56.390Z,1025.42
2019-03-28T04:23:56.720Z,1025.37
2019-03-28T04:24:57.056Z,1025.35
2019-03-28T04:25:57.416Z,1025.41
2019-03-28T04:26:57.738Z,1025.40
2019-03-28T04:27:58.077Z,1025.44
2019-03-28T04:28:58.467Z,1025.42
2019-03-28T04:29:58.725Z,1025.42
2019-03-28T04:30:59.073Z,1025.41
2019-03-28T04:31:59.395Z,1025.46
2019-03-28T04:32:59.754Z,1025.46
2019-03-28T04:34:06.513Z,1025.46
2019-03-28T04:35:01.416Z,1025.45
2019-03-28T04:36:00.774Z,1025.49
2019-03-28T04:37:01.120Z,1025.48
2019-03-28T04:38:01.470Z,1025.52
2019-03-28T04:39:01.983Z,1025.56
2019-03-28T04:40:02.099Z,1025.58
2019-03-28T04:41:02.454Z,1025.58
2019-03-28T04:42:02.768Z,1025.60
2019-03-28T04:43:03.114Z,1025.61
2019-03-28T04:44:03.456Z,1025.57
2019-03-28T04:45:05.312Z,1025.60
2019-03-28T04:46:04.306Z,1025.58
2019-03-28T04:47:04.493Z,1025.64
2019-03-28T04:48:04.848Z,1025.61
2019-03-28T04:49:05.162Z,1025.64
2019-03-28T04:50:05.498Z,1025.64
2019-03-28T04:51:05.849Z,1025.65
2019-03-28T04:52:06.175Z,1025.69
2019-03-28T04:53:06.546Z,1025.64
2019-03-28T04:54:09.593Z,1025.63
2019-03-28T04:55:07.176Z,1025.68
2019-03-28T04:56:07.533Z,1025.67
2019-03-28T04:57:07.850Z,1025.63
2019-03-28T04:58:08.220Z,1025.66
2019-03-28T04:59:08.507Z,1025.63
2019-03-28T05:00:08.861Z,1025.68
2019-03-28T05:01:09.214Z,1025.69
2019-03-28T05:02:09.565Z,1025.62
2019-03-28T05:03:09.883Z,1025.60
2019-03-28T05:04:10.179Z,1025.70
2019-03-28T05:05:10.517Z,1025.70
2019-03-28T05:06:10.885Z,1025.72
2019-03-28T05:07:11.207Z,1025.72
2019-03-28T05:08:11.856Z,1025.68
2019-03-28T05:09:11.872Z,1025.69
2019-03-28T05:10:12.255Z,1025.72
2019-03-28T05:11:12.579Z,1025.73
2019-03-28T05:12:12.885Z,1025.73
2019-03-28T05:13:13.231Z,1025.73
2019-03-28T05:14:13.581Z,1025.71
2019-03-28T05:15:13.906Z,1025.69
2019-03-28T05:16:14.261Z,1025.75
2019-03-28T05:17:14.614Z,1025.71
2019-03-28T05:18:14.985Z,1025.75
2019-03-28T05:19:15.412Z,1025.75
2019-03-28T05:20:15.595Z,1025.79
2019-03-28T05:21:15.952Z,1025.76
2019-03-28T05:22:16.350Z,1025.78
2019-03-28T05:23:16.640Z,1025.77
2019-03-28T05:24:16.983Z,1025.78
2019-03-28T05:25:17.302Z,1025.82
2019-03-28T05:26:17.638Z,1025.85
2019-03-28T05:27:18.116Z,1025.86
2019-03-28T05:28:18.333Z,1025.92
2019-03-28T05:29:18.685Z,1025.87
2019-03-28T05:30:19.011Z,1025.99
2019-03-28T05:31:19.342Z,1025.86
2019-03-28T05:32:19.676Z,1025.90
2019-03-28T05:33:20.023Z,1025.95
2019-03-28T05:34:20.370Z,1025.92
2019-03-28T05:35:20.763Z,1025.92
2019-03-28T05:36:21.006Z,1025.92
2019-03-28T05:37:21.349Z,1025.89
2019-03-28T05:38:21.718Z,1025.90
2019-03-28T05:39:22.054Z,1025.88
2019-03-28T05:40:22.777Z,1025.93
2019-03-28T05:41:22.729Z,1025.94
2019-03-28T05:42:23.031Z,1025.95
2019-03-28T05:43:23.458Z,1025.93
2019-03-28T05:44:23.727Z,1025.97
2019-03-28T05:45:24.056Z,1026.00
2019-03-28T05:46:24.408Z,1026.06
2019-03-28T05:47:24.731Z,1025.99
2019-03-28T05:48:25.095Z,1025.99
2019-03-28T05:49:25.431Z,1026.06
2019-03-28T05:50:25.738Z,1026.00
2019-03-28T05:51:26.137Z,1026.11
2019-03-28T05:52:26.507Z,1026.06
2019-03-28T05:53:26.770Z,1026.04
2019-03-28T05:54:27.107Z,1026.02
2019-03-28T05:55:27.429Z,1026.06
2019-03-28T05:56:27.787Z,1026.00
2019-03-28T05:57:28.103Z,1026.07
2019-03-28T05:58:28.465Z,1026.01
2019-03-28T05:59:28.800Z,1026.06
2019-03-28T06:00:29.232Z,1026.08
2019-03-28T06:01:29.469Z,1026.05
2019-03-28T06:02:29.780Z,1026.10
2019-03-28T06:03:30.287Z,1026.11
2019-03-28T06:04:30.472Z,1026.13
2019-03-28T06:05:30.810Z,1026.13
2019-03-28T06:06:31.163Z,1026.11
2019-03-28T06:07:31.489Z,1026.17
2019-03-28T06:08:31.903Z,1026.17
2019-03-28T06:09:32.171Z,1026.24
2019-03-28T06:10:32.488Z,1026.21
2019-03-28T06:11:32.826Z,1026.24
2019-03-28T06:12:33.163Z,1026.23
2019-03-28T06:13:33.517Z,1026.23
2019-03-28T06:14:33.838Z,1026.28
2019-03-28T06:15:34.174Z,1026.31
2019-03-28T06:16:34.589Z,1026.32
2019-03-28T06:17:35.100Z,1026.28
2019-03-28T06:18:35.469Z,1026.33
2019-03-28T06:19:35.808Z,1026.34
2019-03-28T06:20:36.118Z,1026.42
2019-03-28T06:21:39.411Z,1026.40
2019-03-28T06:22:36.828Z,1026.46
2019-03-28T06:23:37.420Z,1026.37
2019-03-28T06:24:37.536Z,1026.38
2019-03-28T06:25:40.778Z,1026.43
2019-03-28T06:26:38.153Z,1026.43
2019-03-28T06:27:38.526Z,1026.42
2019-03-28T06:28:38.865Z,1026.46
2019-03-28T06:29:39.235Z,1026.49
2019-03-28T06:30:39.519Z,1026.52
2019-03-28T06:31:39.838Z,1026.52
2019-03-28T06:32:43.109Z,1026.47
2019-03-28T06:33:40.695Z,1026.50
2019-03-28T06:34:40.908Z,1026.60
2019-03-28T06:35:41.200Z,1026.51
2019-03-28T06:36:41.535Z,1026.51
2019-03-28T06:37:41.906Z,1026.55
2019-03-28T06:38:42.229Z,1026.53
2019-03-28T06:39:42.589Z,1026.57
2019-03-28T06:40:42.899Z,1026.61
2019-03-28T06:41:44.264Z,1026.57
2019-03-28T06:42:43.584Z,1026.64
2019-03-28T06:43:43.898Z,1026.58
2019-03-28T06:44:44.267Z,1026.59
2019-03-28T06:45:44.579Z,1026.58
2019-03-28T06:46:44.901Z,1026.60
2019-03-28T06:47:45.268Z,1026.62
2019-03-28T06:48:45.595Z,1026.59
2019-03-28T06:49:46.008Z,1026.65
2019-03-28T06:50:46.250Z,1026.61
2019-03-28T06:51:46.569Z,1026.68
2019-03-28T06:52:46.942Z,1026.64
2019-03-28T06:53:47.277Z,1026.65
2019-03-28T06:54:47.642Z,1026.68
2019-03-28T06:55:47.958Z,1026.61
2019-03-28T06:56:48.290Z,1026.73
2019-03-28T06:57:48.712Z,1026.72
2019-03-28T06:58:48.940Z,1026.69
2019-03-28T06:59:49.306Z,1026.77
2019-03-28T07:00:49.630Z,1026.75
2019-03-28T07:01:49.971Z,1026.72
2019-03-28T07:02:50.321Z,1026.69
2019-03-28T07:03:50.629Z,1026.76
2019-03-28T07:04:51.012Z,1026.68
2019-03-28T07:05:51.367Z,1026.70
2019-03-28T07:06:51.766Z,1026.70
2019-03-28T07:07:52.021Z,1026.72
2019-03-28T07:08:52.324Z,1026.74
2019-03-28T07:09:52.703Z,1026.78
2019-03-28T07:10:53.020Z,1026.77
2019-03-28T07:11:53.356Z,1026.76
2019-03-28T07:12:53.706Z,1026.71
2019-03-28T07:13:54.025Z,1026.81
2019-03-28T07:14:54.511Z,1026.79
2019-03-28T07:15:54.693Z,1026.76
2019-03-28T07:16:55.040Z,1026.73
2019-03-28T07:17:55.384Z,1026.74
2019-03-28T07:18:55.689Z,1026.72
2019-03-28T07:19:56.057Z,1026.75
2019-03-28T07:20:56.405Z,1026.79
2019-03-28T07:21:56.751Z,1026.80
2019-03-28T07:22:57.185Z,1026.73
2019-03-28T07:23:57.398Z,1026.75
2019-03-28T07:24:57.760Z,1026.73
2019-03-28T07:25:58.120Z,1026.75
2019-03-28T07:26:58.442Z,1026.76
2019-03-28T07:27:58.807Z,1026.74
2019-03-28T07:28:59.469Z,1026.76
2019-03-28T07:29:59.441Z,1026.76
2019-03-28T07:30:59.890Z,1026.79
2019-03-28T07:32:00.111Z,1026.75
2019-03-28T07:33:00.474Z,1026.82
2019-03-28T07:34:00.790Z,1026.89
2019-03-28T07:35:01.437Z,1026.86
2019-03-28T07:36:01.466Z,1026.90
2019-03-28T07:37:01.802Z,1026.90
2019-03-28T07:38:02.179Z,1026.89
2019-03-28T07:39:02.543Z,1026.92
2019-03-28T07:40:02.909Z,1026.96
2019-03-28T07:41:03.168Z,1026.91
2019-03-28T07:42:03.510Z,1026.87
2019-03-28T07:43:03.886Z,1026.93
2019-03-28T07:44:04.206Z,1026.91
2019-03-28T07:45:04.559Z,1026.86
2019-03-28T07:46:04.896Z,1026.94
2019-03-28T07:47:05.207Z,1026.92
2019-03-28T07:48:05.665Z,1026.91
2019-03-28T07:49:05.879Z,1026.88
2019-03-28T07:50:06.259Z,1027.00
2019-03-28T07:51:06.570Z,1027.08
2019-03-28T07:52:06.875Z,1026.95
2019-03-28T07:53:07.240Z,1026.97
2019-03-28T07:54:07.566Z,1026.95
2019-03-28T07:55:08.148Z,1026.99
2019-03-28T07:56:08.593Z,1026.98
2019-03-28T07:57:08.551Z,1027.00
2019-03-28T07:58:09.257Z,1026.98
2019-03-28T07:59:09.231Z,1027.06
2019-03-28T08:00:09.580Z,1027.04
2019-03-28T08:01:09.921Z,1027.07
2019-03-28T08:02:10.241Z,1027.05
2019-03-28T08:03:10.582Z,1027.05
2019-03-28T08:04:12.182Z,1027.09
2019-03-28T08:05:11.265Z,1027.07
2019-03-28T08:06:12.619Z,1027.06
2019-03-28T08:07:11.913Z,1027.11
2019-03-28T08:08:12.255Z,1027.03
2019-03-28T08:09:12.574Z,1027.10
2019-03-28T08:10:12.932Z,1027.06
2019-03-28T08:11:13.330Z,1027.11
2019-03-28T08:12:22.485Z,1027.12
2019-03-28T08:13:14.937Z,1027.05
2019-03-28T08:14:14.243Z,1027.07
2019-03-28T08:15:14.618Z,1027.07
2019-03-28T08:16:14.973Z,1027.01
2019-03-28T08:17:15.341Z,1026.98
2019-03-28T08:18:15.627Z,1026.98
2019-03-28T08:19:15.946Z,1027.03
2019-03-28T08:20:16.295Z,1027.05
2019-03-28T08:21:16.722Z,1027.04
2019-03-28T08:22:16.954Z,1027.05
2019-03-28T08:23:17.312Z,1027.03
2019-03-28T08:24:17.612Z,1027.07
2019-03-28T08:25:17.948Z,1027.11
2019-03-28T08:26:18.332Z,1027.12
2019-03-28T08:27:18.641Z,1027.14
2019-03-28T08:28:18.981Z,1027.17
2019-03-28T08:29:19.419Z,1027.14
2019-03-28T08:30:19.768Z,1027.17
2019-03-28T08:31:19.999Z,1027.23
2019-03-28T08:32:20.321Z,1027.20
2019-03-28T08:33:20.663Z,1027.21
2019-03-28T08:34:21.016Z,1027.22
2019-03-28T08:35:21.645Z,1027.19
2019-03-28T08:36:21.710Z,1027.18
2019-03-28T08:37:22.100Z,1027.17
2019-03-28T08:38:22.345Z,1027.21
2019-03-28T08:39:22.706Z,1027.26
2019-03-28T08:40:23.548Z,1027.27
2019-03-28T08:41:23.399Z,1027.27
2019-03-28T08:42:23.714Z,1027.28
2019-03-28T08:43:24.056Z,1027.36
2019-03-28T08:44:24.410Z,1027.31
2019-03-28T08:45:24.788Z,1027.34
2019-03-28T08:46:25.047Z,1027.42
2019-03-28T08:47:25.389Z,1027.39
2019-03-28T08:48:25.724Z,1027.37
2019-03-28T08:49:26.086Z,1027.40
2019-03-28T08:50:26.415Z,1027.38
2019-03-28T08:51:27.311Z,1027.35
2019-03-28T08:52:27.061Z,1027.37
2019-03-28T08:53:27.436Z,1027.42
2019-03-28T08:54:27.784Z,1027.38
2019-03-28T08:55:28.130Z,1027.43
2019-03-28T08:56:28.419Z,1027.39
2019-03-28T08:57:28.743Z,1027.46
2019-03-28T08:58:29.091Z,1027.45
2019-03-28T08:59:29.437Z,1027.49
2019-03-28T09:00:35.112Z,1027.47
2019-03-28T09:01:31.140Z,1027.56
2019-03-28T09:02:30.554Z,1027.58
2019-03-28T09:03:30.776Z,1027.61
2019-03-28T09:04:31.128Z,1027.54
2019-03-28T09:05:31.484Z,1027.49
2019-03-28T09:06:31.803Z,1027.50
2019-03-28T09:07:32.100Z,1027.50
2019-03-28T09:08:32.464Z,1027.54
2019-03-28T09:09:32.803Z,1027.47
2019-03-28T09:10:33.258Z,1027.51
2019-03-28T09:11:33.454Z,1027.53
2019-03-28T09:12:34.992Z,1027.47
2019-03-28T09:13:34.133Z,1027.49
2019-03-28T09:14:34.485Z,1027.45
2019-03-28T09:15:43.605Z,1027.46
2019-03-28T09:16:36.159Z,1027.38
2019-03-28T09:17:35.463Z,1027.46
2019-03-28T09:18:35.862Z,1027.41
2019-03-28T09:19:38.717Z,1027.36
2019-03-28T09:20:36.479Z,1027.45
2019-03-28T09:21:36.833Z,1027.41
2019-03-28T09:22:38.695Z,1027.38
2019-03-28T09:23:37.472Z,1027.37
2019-03-28T09:24:37.839Z,1027.36
2019-03-28T09:25:38.196Z,1027.36
2019-03-28T09:26:38.568Z,1027.35
2019-03-28T09:27:38.850Z,1027.41
2019-03-28T09:28:39.148Z,1027.37
2019-03-28T09:29:39.500Z,1027.37
2019-03-28T09:30:47.878Z,1027.36
2019-03-28T09:31:41.163Z,1027.40
2019-03-28T09:32:40.751Z,1027.41
2019-03-28T09:33:41.075Z,1027.43
2019-03-28T09:34:41.207Z,1027.37
2019-03-28T09:35:41.659Z,1027.42
2019-03-28T09:36:41.864Z,1027.39
2019-03-28T09:37:42.217Z,1027.36
2019-03-28T09:38:42.557Z,1027.50
2019-03-28T09:39:42.895Z,1027.36
2019-03-28T09:40:43.268Z,1027.46
2019-03-28T09:41:43.578Z,1027.43
2019-03-28T09:42:43.934Z,1027.40
2019-03-28T09:43:54.543Z,1027.37
2019-03-28T09:44:45.602Z,1027.34
2019-03-28T09:45:44.944Z,1027.35
2019-03-28T09:46:45.279Z,1027.37
2019-03-28T09:47:45.634Z,1027.35
2019-03-28T09:48:45.954Z,1027.34
2019-03-28T09:49:46.302Z,1027.30
2019-03-28T09:50:46.653Z,1027.35
2019-03-28T09:51:47.017Z,1027.37
2019-03-28T09:52:47.301Z,1027.35
2019-03-28T09:53:47.625Z,1027.37
2019-03-28T09:54:47.973Z,1027.34
2019-03-28T09:55:48.317Z,1027.28
2019-03-28T09:56:48.635Z,1027.38
2019-03-28T09:57:48.990Z,1027.38
2019-03-28T09:58:49.311Z,1027.26
2019-03-28T09:59:49.709Z,1027.35
2019-03-28T10:01:02.197Z,1027.35
2019-03-28T10:01:51.295Z,1027.39
2019-03-28T10:02:50.656Z,1027.37
2019-03-28T10:03:50.978Z,1027.36
2019-03-28T10:04:51.328Z,1027.33
2019-03-28T10:05:51.671Z,1027.37
2019-03-28T10:06:51.973Z,1027.29
2019-03-28T10:07:52.383Z,1027.37
2019-03-28T10:08:52.722Z,1027.34
2019-03-28T10:09:53.546Z,1027.39
2019-03-28T10:10:53.364Z,1027.33
2019-03-28T10:11:53.681Z,1027.32
2019-03-28T10:12:54.047Z,1027.37
2019-03-28T10:13:54.366Z,1027.37
2019-03-28T10:14:54.721Z,1027.36
2019-03-28T10:15:57.342Z,1027.41
2019-03-28T10:16:55.481Z,1027.42
2019-03-28T10:17:55.727Z,1027.38
2019-03-28T10:18:56.043Z,1027.44
2019-03-28T10:19:56.399Z,1027.42
2019-03-28T10:20:56.744Z,1027.51
2019-03-28T10:21:57.034Z,1027.37
2019-03-28T10:22:57.387Z,1027.42
2019-03-28T10:23:57.724Z,1027.44
2019-03-28T10:24:58.183Z,1027.48
2019-03-28T10:25:58.421Z,1027.47
2019-03-28T10:26:58.718Z,1027.44
2019-03-28T10:27:59.087Z,1027.48
2019-03-28T10:28:59.416Z,1027.46
2019-03-28T10:29:59.771Z,1027.52
2019-03-28T10:31:00.110Z,1027.49
2019-03-28T10:32:00.426Z,1027.55
2019-03-28T10:33:00.806Z,1027.51
2019-03-28T10:34:01.086Z,1027.53
2019-03-28T10:35:01.436Z,1027.57
2019-03-28T10:36:01.769Z,1027.53
2019-03-28T10:37:02.102Z,1027.54
2019-03-28T10:38:02.477Z,1027.56
2019-03-28T10:39:02.760Z,1027.52
2019-03-28T10:40:03.108Z,1027.53
2019-03-28T10:41:03.530Z,1027.47
2019-03-28T10:42:03.788Z,1027.47
2019-03-28T10:43:04.168Z,1027.47
2019-03-28T10:44:04.464Z,1027.42
2019-03-28T10:45:04.811Z,1027.45
2019-03-28T10:46:05.178Z,1027.48
2019-03-28T10:47:05.537Z,1027.54
2019-03-28T10:48:05.877Z,1027.55
2019-03-28T10:49:06.209Z,1027.52
2019-03-28T10:50:06.599Z,1027.51
2019-03-28T10:51:06.891Z,1027.42
2019-03-28T10:52:07.220Z,1027.41
2019-03-28T10:53:07.582Z,1027.40
2019-03-28T10:54:19.268Z,1027.40
2019-03-28T10:55:09.202Z,1027.45
2019-03-28T10:56:20.570Z,1027.43
2019-03-28T10:57:15.538Z,1027.48
2019-03-28T10:58:18.256Z,1027.44
2019-03-28T10:59:22.395Z,1027.42
2019-03-28T11:00:23.196Z,1027.44
2019-03-28T11:01:11.280Z,1027.40
2019-03-28T11:02:10.601Z,1027.46
2019-03-28T11:03:11.000Z,1027.49
2019-03-28T11:04:11.269Z,1027.47
2019-03-28T11:05:11.594Z,1027.52
2019-03-28T11:06:12.005Z,1027.50
2019-03-28T11:07:12.274Z,1027.43
2019-03-28T11:08:12.629Z,1027.48
2019-03-28T11:09:12.944Z,1027.50
2019-03-28T11:10:13.280Z,1027.54
2019-03-28T11:11:13.621Z,1027.60
2019-03-28T11:12:13.966Z,1027.57
2019-03-28T11:13:14.525Z,1027.63
2019-03-28T11:14:14.698Z,1027.65
2019-03-28T11:15:14.949Z,1027.65
2019-03-28T11:16:15.396Z,1027.64
2019-03-28T11:17:15.618Z,1027.62
2019-03-28T11:18:15.974Z,1027.67
2019-03-28T11:19:17.416Z,1027.71
2019-03-28T11:20:16.631Z,1027.72
2019-03-28T11:21:16.998Z,1027.76
2019-03-28T11:22:17.336Z,1027.79
2019-03-28T11:23:17.711Z,1027.82
2019-03-28T11:24:17.998Z,1027.85
2019-03-28T11:25:18.335Z,1027.87
2019-03-28T11:26:18.697Z,1027.83
2019-03-28T11:27:19.020Z,1027.93
2019-03-28T11:28:19.358Z,1027.83
2019-03-28T11:29:19.685Z,1027.88
2019-03-28T11:30:20.026Z,1027.92
2019-03-28T11:31:20.515Z,1027.83
2019-03-28T11:32:20.686Z,1027.88
2019-03-28T11:33:21.596Z,1027.94
2019-03-28T11:34:21.379Z,1027.86
2019-03-28T11:35:21.706Z,1027.92
2019-03-28T11:36:22.066Z,1027.94
2019-03-28T11:37:26.514Z,1027.90
2019-03-28T11:38:22.720Z,1028.00
2019-03-28T11:39:23.169Z,1027.88
2019-03-28T11:40:24.464Z,1027.87
2019-03-28T11:41:23.770Z,1027.89
2019-03-28T11:42:24.090Z,1027.87
2019-03-28T11:43:24.406Z,1027.88
2019-03-28T11:44:24.779Z,1027.86
2019-03-28T11:45:26.750Z,1027.88
2019-03-28T11:46:25.463Z,1027.90
2019-03-28T11:47:25.837Z,1027.87
2019-03-28T11:48:26.092Z,1027.88
2019-03-28T11:49:27.077Z,1027.95
2019-03-28T11:50:26.794Z,1027.96
2019-03-28T11:51:27.153Z,1027.95
2019-03-28T11:52:27.488Z,1027.89
2019-03-28T11:53:27.805Z,1027.95
2019-03-28T11:54:28.145Z,1027.92
2019-03-28T11:55:28.498Z,1028.00
2019-03-28T11:56:28.849Z,1027.98
2019-03-28T11:57:29.185Z,1027.98
2019-03-28T11:58:29.490Z,1027.95
2019-03-28T11:59:29.884Z,1027.92
2019-03-28T12:00:30.151Z,1027.97
2019-03-28T12:01:30.520Z,1027.98
2019-03-28T12:02:30.869Z,1028.01
2019-03-28T12:03:31.193Z,1027.96
2019-03-28T12:04:31.641Z,1027.94
2019-03-28T12:05:31.844Z,1027.96
2019-03-28T12:06:32.220Z,1028.07
2019-03-28T12:07:32.568Z,1027.98
2019-03-28T12:08:32.874Z,1027.95
2019-03-28T12:09:33.227Z,1027.99